Tijuana, Mexico

10:01 AM PDT on July 19, 2019 (GMT -0700)
TIJUANA / PROTECCION CIVIL BC | | Change Station

Elev 656 ft 32.51 °N, 117.05 °W | Updated 1 minute ago

Partly Cloudy
Partly Cloudy
68.8 °F
Feels Like 68.8 °F
N
0
Wind Variable Wind from WNW
Gusts 4.0 mph

Today
High -- | Low -- °F
--% Chance of Precip.
Yesterday
High -- | Low -- °F
Precip. -- in
Pressure 29.94 in
Visibility 10.0 miles
Clouds Clear
Dew Point 59 °F
Humidity 72%
Rainfall 0.00 in
Snow Depth Not available.
5:53 AM 7:54 PM
Waning Gibbous, 93% visible
METAR KSDM 191653Z 01003KT 10SM CLR 20/15 A2995 RMK AO2 SLP139 T02000150
Pressure 29.94 in
Visibility 10.0 miles
Clouds Clear
Dew Point 59 °F
Humidity 72%
Rainfall 0.00 in
Snow Depth Not available.
5:53 AM 7:54 PM
Waning Gibbous, 93% visible
METAR KSDM 191653Z 01003KT 10SM CLR 20/15 A2995 RMK AO2 SLP139 T02000150

Get Severe Weather Alerts

Thanks for signing up!

Be on the lookout for a verification email in your inbox.

You'll start receiving the daily forecast at 6 AM.

×

10-Day Weather Forecast

No radar image for this location.
×

Almanac

Astronomy

Jul. 19, 2019 Rise Set
Actual Time
Civil Twilight
Nautical Twilight
Astronomical Twilight
Moon
Length of Visible Light
Length of Day
Tomorrow will be .
, % of the Moon is Illuminated

Today's Extremes

Country Highs Country Lows

Community

WunderPhotos

Category 6

Welcome to Category 6. This is the collective home for Weather Underground's featured writeups by Dr. Jeff Masters (right), Bob Henson (left), Chris Burt, and other regular contributors.

Nearby

Air Quality

  Air Quality AQ Index Pollutant
Not available.

Snow Depth

Station Depth Elevation

Earthquake Activity

City Distance Mag. Time & Date
Minimum magnitude displayed is 2.5.

Coastal Water Temperatures

Place Temperature

Stations

Nearby Weather Stations

Station Location Temp. Windchill Dew Point Humidity Wind Precip. Elev Updated Type